sensor_id;sensor_type;location;lat;lon;timestamp;P1;durP1;ratioP1;P2;durP2;ratioP2
71148;SDS011;59072;42.144;25.200;2022-10-16T00:00:52;11.98;;;7.65;;
71148;SDS011;59072;42.144;25.200;2022-10-16T00:03:17;12.85;;;7.93;;
71148;SDS011;59072;42.144;25.200;2022-10-16T00:05:43;12.73;;;7.60;;
71148;SDS011;59072;42.144;25.200;2022-10-16T00:08:10;11.95;;;8.15;;
71148;SDS011;59072;42.144;25.200;2022-10-16T00:10:36;13.25;;;7.90;;
71148;SDS011;59072;42.144;25.200;2022-10-16T00:13:03;13.85;;;8.50;;
71148;SDS011;59072;42.144;25.200;2022-10-16T00:15:29;17.65;;;9.32;;
71148;SDS011;59072;42.144;25.200;2022-10-16T00:17:55;11.82;;;8.20;;
71148;SDS011;59072;42.144;25.200;2022-10-16T00:20:20;13.75;;;8.18;;
71148;SDS011;59072;42.144;25.200;2022-10-16T00:22:46;15.88;;;9.05;;
71148;SDS011;59072;42.144;25.200;2022-10-16T00:25:11;15.20;;;8.13;;
71148;SDS011;59072;42.144;25.200;2022-10-16T00:27:37;10.38;;;8.02;;
71148;SDS011;59072;42.144;25.200;2022-10-16T00:30:02;10.73;;;7.50;;
71148;SDS011;59072;42.144;25.200;2022-10-16T00:32:28;12.32;;;7.57;;
71148;SDS011;59072;42.144;25.200;2022-10-16T00:34:54;13.73;;;8.02;;
71148;SDS011;59072;42.144;25.200;2022-10-16T00:37:20;11.38;;;7.60;;
71148;SDS011;59072;42.144;25.200;2022-10-16T00:39:45;11.38;;;8.05;;
71148;SDS011;59072;42.144;25.200;2022-10-16T00:42:15;12.20;;;8.10;;
71148;SDS011;59072;42.144;25.200;2022-10-16T00:44:43;14.95;;;7.88;;
71148;SDS011;59072;42.144;25.200;2022-10-16T00:47:09;11.02;;;7.40;;
71148;SDS011;59072;42.144;25.200;2022-10-16T00:49:38;13.43;;;7.70;;
71148;SDS011;59072;42.144;25.200;2022-10-16T00:52:03;11.07;;;7.05;;
71148;SDS011;59072;42.144;25.200;2022-10-16T00:54:30;10.05;;;7.30;;
71148;SDS011;59072;42.144;25.200;2022-10-16T00:56:59;13.52;;;7.68;;
71148;SDS011;59072;42.144;25.200;2022-10-16T00:59:28;10.65;;;7.60;;
71148;SDS011;59072;42.144;25.200;2022-10-16T01:01:56;12.88;;;8.05;;
71148;SDS011;59072;42.144;25.200;2022-10-16T01:04:23;13.52;;;8.57;;
71148;SDS011;59072;42.144;25.200;2022-10-16T01:12:33;11.35;;;7.35;;
71148;SDS011;59072;42.144;25.200;2022-10-16T01:15:33;10.65;;;7.32;;
71148;SDS011;59072;42.144;25.200;2022-10-16T01:21:05;14.15;;;8.18;;
71148;SDS011;59072;42.144;25.200;2022-10-16T01:23:39;10.25;;;6.72;;
71148;SDS011;59072;42.144;25.200;2022-10-16T01:26:10;12.77;;;8.10;;
71148;SDS011;59072;42.144;25.200;2022-10-16T01:31:19;10.05;;;7.60;;
71148;SDS011;59072;42.144;25.200;2022-10-16T01:36:59;16.05;;;9.00;;
71148;SDS011;59072;42.144;25.200;2022-10-16T01:39:30;13.90;;;8.45;;
71148;SDS011;59072;42.144;25.200;2022-10-16T01:42:04;11.70;;;7.65;;
71148;SDS011;59072;42.144;25.200;2022-10-16T01:44:40;16.90;;;8.95;;
71148;SDS011;59072;42.144;25.200;2022-10-16T01:47:08;16.10;;;8.98;;
71148;SDS011;59072;42.144;25.200;2022-10-16T01:49:36;24.73;;;13.27;;
71148;SDS011;59072;42.144;25.200;2022-10-16T01:52:08;32.72;;;15.77;;
71148;SDS011;59072;42.144;25.200;2022-10-16T01:54:37;40.80;;;17.90;;
71148;SDS011;59072;42.144;25.200;2022-10-16T01:57:07;41.38;;;18.65;;
71148;SDS011;59072;42.144;25.200;2022-10-16T01:59:34;39.67;;;18.75;;
71148;SDS011;59072;42.144;25.200;2022-10-16T02:02:04;33.13;;;16.02;;
71148;SDS011;59072;42.144;25.200;2022-10-16T02:04:34;37.35;;;17.08;;
71148;SDS011;59072;42.144;25.200;2022-10-16T02:07:03;27.10;;;14.57;;
71148;SDS011;59072;42.144;25.200;2022-10-16T02:09:29;18.60;;;10.88;;
71148;SDS011;59072;42.144;25.200;2022-10-16T02:11:57;24.83;;;13.10;;
71148;SDS011;59072;42.144;25.200;2022-10-16T02:14:28;25.30;;;13.02;;
71148;SDS011;59072;42.144;25.200;2022-10-16T02:16:54;24.25;;;12.60;;
71148;SDS011;59072;42.144;25.200;2022-10-16T02:19:19;20.70;;;11.35;;
71148;SDS011;59072;42.144;25.200;2022-10-16T02:21:48;16.75;;;10.40;;
71148;SDS011;59072;42.144;25.200;2022-10-16T02:29:35;14.80;;;8.50;;
71148;SDS011;59072;42.144;25.200;2022-10-16T02:32:06;15.07;;;7.95;;
71148;SDS011;59072;42.144;25.200;2022-10-16T02:34:35;19.05;;;9.27;;
71148;SDS011;59072;42.144;25.200;2022-10-16T02:37:02;21.95;;;9.40;;
71148;SDS011;59072;42.144;25.200;2022-10-16T02:39:30;18.60;;;10.25;;
71148;SDS011;59072;42.144;25.200;2022-10-16T02:41:56;19.40;;;10.18;;
71148;SDS011;59072;42.144;25.200;2022-10-16T02:44:21;16.85;;;10.35;;
71148;SDS011;59072;42.144;25.200;2022-10-16T02:46:47;17.20;;;10.00;;
71148;SDS011;59072;42.144;25.200;2022-10-16T02:49:12;17.63;;;9.77;;
71148;SDS011;59072;42.144;25.200;2022-10-16T02:51:38;14.75;;;8.73;;
71148;SDS011;59072;42.144;25.200;2022-10-16T02:54:03;14.82;;;8.68;;
71148;SDS011;59072;42.144;25.200;2022-10-16T02:56:29;16.63;;;8.73;;
71148;SDS011;59072;42.144;25.200;2022-10-16T02:58:55;20.02;;;10.43;;
71148;SDS011;59072;42.144;25.200;2022-10-16T03:01:20;15.70;;;9.48;;
71148;SDS011;59072;42.144;25.200;2022-10-16T03:03:46;14.18;;;8.52;;
71148;SDS011;59072;42.144;25.200;2022-10-16T03:06:11;18.20;;;9.00;;
71148;SDS011;59072;42.144;25.200;2022-10-16T03:08:36;15.77;;;9.82;;
71148;SDS011;59072;42.144;25.200;2022-10-16T03:11:02;17.88;;;9.20;;
71148;SDS011;59072;42.144;25.200;2022-10-16T03:13:27;15.45;;;9.88;;
71148;SDS011;59072;42.144;25.200;2022-10-16T03:15:53;16.35;;;10.88;;
71148;SDS011;59072;42.144;25.200;2022-10-16T03:18:18;23.20;;;11.48;;
71148;SDS011;59072;42.144;25.200;2022-10-16T03:20:44;28.65;;;14.05;;
71148;SDS011;59072;42.144;25.200;2022-10-16T03:23:09;50.00;;;22.10;;
71148;SDS011;59072;42.144;25.200;2022-10-16T03:25:35;94.22;;;40.00;;
71148;SDS011;59072;42.144;25.200;2022-10-16T03:28:00;40.30;;;18.83;;
71148;SDS011;59072;42.144;25.200;2022-10-16T03:30:26;46.25;;;21.25;;
71148;SDS011;59072;42.144;25.200;2022-10-16T03:32:52;21.67;;;10.80;;
71148;SDS011;59072;42.144;25.200;2022-10-16T03:35:22;14.45;;;8.27;;
71148;SDS011;59072;42.144;25.200;2022-10-16T03:37:49;12.18;;;7.60;;
71148;SDS011;59072;42.144;25.200;2022-10-16T03:40:15;9.93;;;7.32;;
71148;SDS011;59072;42.144;25.200;2022-10-16T03:42:44;12.85;;;7.53;;
71148;SDS011;59072;42.144;25.200;2022-10-16T03:45:10;10.65;;;7.30;;
71148;SDS011;59072;42.144;25.200;2022-10-16T03:47:36;11.48;;;7.72;;
71148;SDS011;59072;42.144;25.200;2022-10-16T03:50:02;11.00;;;7.18;;
71148;SDS011;59072;42.144;25.200;2022-10-16T03:52:29;16.25;;;9.68;;
71148;SDS011;59072;42.144;25.200;2022-10-16T03:54:54;13.68;;;8.10;;
71148;SDS011;59072;42.144;25.200;2022-10-16T03:57:20;11.23;;;7.57;;
71148;SDS011;59072;42.144;25.200;2022-10-16T03:59:46;12.98;;;7.60;;
71148;SDS011;59072;42.144;25.200;2022-10-16T04:02:11;17.98;;;10.57;;
71148;SDS011;59072;42.144;25.200;2022-10-16T04:04:37;19.13;;;10.60;;
71148;SDS011;59072;42.144;25.200;2022-10-16T04:07:03;17.45;;;9.70;;
71148;SDS011;59072;42.144;25.200;2022-10-16T04:09:29;49.33;;;22.88;;
71148;SDS011;59072;42.144;25.200;2022-10-16T04:11:54;84.97;;;33.50;;
71148;SDS011;59072;42.144;25.200;2022-10-16T04:14:20;49.90;;;23.80;;
71148;SDS011;59072;42.144;25.200;2022-10-16T04:16:45;43.38;;;18.98;;
71148;SDS011;59072;42.144;25.200;2022-10-16T04:19:10;12.48;;;8.63;;
71148;SDS011;59072;42.144;25.200;2022-10-16T04:21:36;15.90;;;8.60;;
71148;SDS011;59072;42.144;25.200;2022-10-16T04:24:02;11.60;;;7.88;;
71148;SDS011;59072;42.144;25.200;2022-10-16T04:26:28;15.93;;;7.93;;
71148;SDS011;59072;42.144;25.200;2022-10-16T04:28:54;13.90;;;8.13;;
71148;SDS011;59072;42.144;25.200;2022-10-16T04:31:19;15.68;;;8.52;;
71148;SDS011;59072;42.144;25.200;2022-10-16T04:33:45;18.95;;;8.70;;
71148;SDS011;59072;42.144;25.200;2022-10-16T04:36:10;22.23;;;13.10;;
71148;SDS011;59072;42.144;25.200;2022-10-16T04:38:36;19.45;;;13.63;;
71148;SDS011;59072;42.144;25.200;2022-10-16T04:41:02;18.58;;;12.93;;
71148;SDS011;59072;42.144;25.200;2022-10-16T04:43:28;13.85;;;9.98;;
71148;SDS011;59072;42.144;25.200;2022-10-16T04:45:54;13.70;;;9.00;;
71148;SDS011;59072;42.144;25.200;2022-10-16T04:48:20;11.60;;;7.57;;
71148;SDS011;59072;42.144;25.200;2022-10-16T04:50:45;14.35;;;8.75;;
71148;SDS011;59072;42.144;25.200;2022-10-16T04:53:11;17.42;;;9.70;;
71148;SDS011;59072;42.144;25.200;2022-10-16T04:55:37;14.73;;;8.95;;
71148;SDS011;59072;42.144;25.200;2022-10-16T04:58:03;26.17;;;11.60;;
71148;SDS011;59072;42.144;25.200;2022-10-16T05:00:29;50.35;;;22.60;;
71148;SDS011;59072;42.144;25.200;2022-10-16T05:02:54;32.58;;;16.05;;
71148;SDS011;59072;42.144;25.200;2022-10-16T05:05:20;34.40;;;17.27;;
71148;SDS011;59072;42.144;25.200;2022-10-16T05:07:46;39.67;;;15.05;;
71148;SDS011;59072;42.144;25.200;2022-10-16T05:10:12;15.75;;;9.23;;
71148;SDS011;59072;42.144;25.200;2022-10-16T05:12:37;10.98;;;7.45;;
71148;SDS011;59072;42.144;25.200;2022-10-16T05:15:03;50.22;;;19.90;;
71148;SDS011;59072;42.144;25.200;2022-10-16T05:17:29;54.55;;;25.02;;
71148;SDS011;59072;42.144;25.200;2022-10-16T05:19:54;96.57;;;32.50;;
71148;SDS011;59072;42.144;25.200;2022-10-16T05:22:20;87.85;;;34.78;;
71148;SDS011;59072;42.144;25.200;2022-10-16T05:24:45;67.75;;;28.02;;
71148;SDS011;59072;42.144;25.200;2022-10-16T05:27:10;27.25;;;14.25;;
71148;SDS011;59072;42.144;25.200;2022-10-16T05:29:43;21.17;;;10.98;;
71148;SDS011;59072;42.144;25.200;2022-10-16T05:32:10;38.42;;;16.08;;
71148;SDS011;59072;42.144;25.200;2022-10-16T05:34:36;21.15;;;10.77;;
71148;SDS011;59072;42.144;25.200;2022-10-16T05:37:01;13.77;;;8.38;;
71148;SDS011;59072;42.144;25.200;2022-10-16T05:39:26;10.82;;;7.57;;
71148;SDS011;59072;42.144;25.200;2022-10-16T05:41:52;12.73;;;7.75;;
71148;SDS011;59072;42.144;25.200;2022-10-16T05:44:17;14.00;;;7.60;;
71148;SDS011;59072;42.144;25.200;2022-10-16T05:46:42;11.95;;;7.13;;
71148;SDS011;59072;42.144;25.200;2022-10-16T05:49:08;13.63;;;8.02;;
71148;SDS011;59072;42.144;25.200;2022-10-16T05:51:33;35.00;;;15.18;;
71148;SDS011;59072;42.144;25.200;2022-10-16T05:53:59;44.63;;;20.05;;
71148;SDS011;59072;42.144;25.200;2022-10-16T05:56:24;51.10;;;18.83;;
71148;SDS011;59072;42.144;25.200;2022-10-16T05:58:49;28.17;;;13.27;;
71148;SDS011;59072;42.144;25.200;2022-10-16T06:01:16;15.73;;;8.73;;
71148;SDS011;59072;42.144;25.200;2022-10-16T06:03:43;12.07;;;7.68;;
71148;SDS011;59072;42.144;25.200;2022-10-16T06:06:13;12.68;;;7.85;;
71148;SDS011;59072;42.144;25.200;2022-10-16T06:08:40;12.75;;;7.43;;
71148;SDS011;59072;42.144;25.200;2022-10-16T06:11:08;13.63;;;7.85;;
71148;SDS011;59072;42.144;25.200;2022-10-16T06:13:36;11.27;;;7.93;;
71148;SDS011;59072;42.144;25.200;2022-10-16T06:16:01;13.63;;;8.25;;
71148;SDS011;59072;42.144;25.200;2022-10-16T06:18:28;11.00;;;7.75;;
71148;SDS011;59072;42.144;25.200;2022-10-16T06:20:55;11.23;;;7.22;;
71148;SDS011;59072;42.144;25.200;2022-10-16T06:23:21;12.38;;;7.60;;
71148;SDS011;59072;42.144;25.200;2022-10-16T06:25:47;11.50;;;7.35;;
71148;SDS011;59072;42.144;25.200;2022-10-16T06:28:15;12.43;;;8.70;;
71148;SDS011;59072;42.144;25.200;2022-10-16T06:30:41;102.20;;;58.92;;
71148;SDS011;59072;42.144;25.200;2022-10-16T06:33:09;28.08;;;16.55;;
71148;SDS011;59072;42.144;25.200;2022-10-16T06:35:35;87.82;;;56.47;;
71148;SDS011;59072;42.144;25.200;2022-10-16T06:38:01;46.72;;;32.88;;
71148;SDS011;59072;42.144;25.200;2022-10-16T06:40:26;44.40;;;29.55;;
71148;SDS011;59072;42.144;25.200;2022-10-16T06:42:54;43.58;;;28.42;;
71148;SDS011;59072;42.144;25.200;2022-10-16T06:47:45;57.22;;;31.73;;
71148;SDS011;59072;42.144;25.200;2022-10-16T06:50:10;17.58;;;9.55;;
71148;SDS011;59072;42.144;25.200;2022-10-16T06:52:36;13.00;;;8.40;;
71148;SDS011;59072;42.144;25.200;2022-10-16T06:55:02;13.48;;;8.02;;
71148;SDS011;59072;42.144;25.200;2022-10-16T06:57:28;14.07;;;8.40;;
71148;SDS011;59072;42.144;25.200;2022-10-16T06:59:53;13.05;;;8.10;;
71148;SDS011;59072;42.144;25.200;2022-10-16T07:02:19;13.18;;;8.43;;
71148;SDS011;59072;42.144;25.200;2022-10-16T07:04:44;12.23;;;8.40;;
71148;SDS011;59072;42.144;25.200;2022-10-16T07:07:10;16.02;;;9.38;;
71148;SDS011;59072;42.144;25.200;2022-10-16T07:09:35;12.68;;;7.50;;
71148;SDS011;59072;42.144;25.200;2022-10-16T07:12:00;11.90;;;6.85;;
71148;SDS011;59072;42.144;25.200;2022-10-16T07:14:26;14.77;;;8.70;;
71148;SDS011;59072;42.144;25.200;2022-10-16T07:16:51;15.35;;;8.85;;
71148;SDS011;59072;42.144;25.200;2022-10-16T07:19:17;12.20;;;7.65;;
71148;SDS011;59072;42.144;25.200;2022-10-16T07:21:43;12.77;;;7.65;;
71148;SDS011;59072;42.144;25.200;2022-10-16T07:24:16;14.40;;;8.35;;
71148;SDS011;59072;42.144;25.200;2022-10-16T07:26:42;15.13;;;9.60;;
71148;SDS011;59072;42.144;25.200;2022-10-16T07:29:13;16.70;;;9.52;;
71148;SDS011;59072;42.144;25.200;2022-10-16T07:31:40;19.85;;;9.80;;
71148;SDS011;59072;42.144;25.200;2022-10-16T07:34:06;13.05;;;9.35;;
71148;SDS011;59072;42.144;25.200;2022-10-16T07:36:32;11.57;;;7.90;;
71148;SDS011;59072;42.144;25.200;2022-10-16T07:38:57;14.93;;;8.50;;
71148;SDS011;59072;42.144;25.200;2022-10-16T07:41:22;13.52;;;8.30;;
71148;SDS011;59072;42.144;25.200;2022-10-16T07:43:49;12.93;;;8.20;;
71148;SDS011;59072;42.144;25.200;2022-10-16T07:46:16;12.63;;;9.27;;
71148;SDS011;59072;42.144;25.200;2022-10-16T07:48:42;15.85;;;8.93;;
71148;SDS011;59072;42.144;25.200;2022-10-16T07:51:11;11.95;;;7.75;;
71148;SDS011;59072;42.144;25.200;2022-10-16T07:53:37;10.82;;;7.60;;
71148;SDS011;59072;42.144;25.200;2022-10-16T07:56:04;13.55;;;7.90;;
71148;SDS011;59072;42.144;25.200;2022-10-16T07:58:31;12.73;;;7.55;;
71148;SDS011;59072;42.144;25.200;2022-10-16T08:00:57;13.00;;;7.55;;
71148;SDS011;59072;42.144;25.200;2022-10-16T08:03:23;11.85;;;7.68;;
71148;SDS011;59072;42.144;25.200;2022-10-16T08:05:49;12.05;;;6.75;;
71148;SDS011;59072;42.144;25.200;2022-10-16T08:08:18;14.00;;;7.00;;
71148;SDS011;59072;42.144;25.200;2022-10-16T08:10:44;11.65;;;7.03;;
71148;SDS011;59072;42.144;25.200;2022-10-16T08:13:10;12.20;;;7.03;;
71148;SDS011;59072;42.144;25.200;2022-10-16T08:15:35;12.38;;;6.40;;
71148;SDS011;59072;42.144;25.200;2022-10-16T08:18:02;12.02;;;7.43;;
71148;SDS011;59072;42.144;25.200;2022-10-16T08:20:29;13.43;;;7.13;;
71148;SDS011;59072;42.144;25.200;2022-10-16T08:22:56;10.88;;;6.07;;
71148;SDS011;59072;42.144;25.200;2022-10-16T08:25:22;12.63;;;7.63;;
71148;SDS011;59072;42.144;25.200;2022-10-16T08:27:48;11.45;;;7.57;;
71148;SDS011;59072;42.144;25.200;2022-10-16T08:30:14;10.32;;;7.22;;
71148;SDS011;59072;42.144;25.200;2022-10-16T08:32:41;13.90;;;8.00;;
71148;SDS011;59072;42.144;25.200;2022-10-16T08:35:08;11.32;;;6.68;;
71148;SDS011;59072;42.144;25.200;2022-10-16T08:37:34;11.43;;;6.75;;
71148;SDS011;59072;42.144;25.200;2022-10-16T08:40:00;11.13;;;6.18;;
71148;SDS011;59072;42.144;25.200;2022-10-16T08:50:51;10.98;;;6.35;;
71148;SDS011;59072;42.144;25.200;2022-10-16T08:53:20;10.60;;;6.63;;
71148;SDS011;59072;42.144;25.200;2022-10-16T08:55:51;8.70;;;5.85;;
71148;SDS011;59072;42.144;25.200;2022-10-16T08:58:19;10.05;;;6.63;;
71148;SDS011;59072;42.144;25.200;2022-10-16T09:11:55;10.60;;;7.38;;
71148;SDS011;59072;42.144;25.200;2022-10-16T09:16:57;13.50;;;8.38;;
71148;SDS011;59072;42.144;25.200;2022-10-16T09:19:31;12.90;;;7.93;;
71148;SDS011;59072;42.144;25.200;2022-10-16T09:22:09;15.68;;;7.82;;
71148;SDS011;59072;42.144;25.200;2022-10-16T09:24:39;12.98;;;8.00;;
71148;SDS011;59072;42.144;25.200;2022-10-16T09:27:04;11.23;;;8.48;;
71148;SDS011;59072;42.144;25.200;2022-10-16T09:29:32;14.82;;;10.23;;
71148;SDS011;59072;42.144;25.200;2022-10-16T09:31:57;13.00;;;8.32;;
71148;SDS011;59072;42.144;25.200;2022-10-16T09:34:36;11.02;;;7.68;;
71148;SDS011;59072;42.144;25.200;2022-10-16T09:37:12;11.48;;;7.22;;
71148;SDS011;59072;42.144;25.200;2022-10-16T09:39:49;13.20;;;8.20;;
71148;SDS011;59072;42.144;25.200;2022-10-16T09:42:18;13.30;;;8.27;;
71148;SDS011;59072;42.144;25.200;2022-10-16T09:44:50;12.55;;;8.45;;
71148;SDS011;59072;42.144;25.200;2022-10-16T09:52:24;11.68;;;7.32;;
71148;SDS011;59072;42.144;25.200;2022-10-16T09:54:51;16.92;;;9.07;;
71148;SDS011;59072;42.144;25.200;2022-10-16T09:57:18;20.40;;;10.18;;
71148;SDS011;59072;42.144;25.200;2022-10-16T09:59:48;10.85;;;7.57;;
71148;SDS011;59072;42.144;25.200;2022-10-16T10:02:19;10.50;;;7.90;;
71148;SDS011;59072;42.144;25.200;2022-10-16T10:04:52;17.42;;;8.00;;
71148;SDS011;59072;42.144;25.200;2022-10-16T10:07:21;12.63;;;7.40;;
71148;SDS011;59072;42.144;25.200;2022-10-16T10:09:53;13.60;;;7.50;;
71148;SDS011;59072;42.144;25.200;2022-10-16T10:12:24;10.95;;;6.80;;
71148;SDS011;59072;42.144;25.200;2022-10-16T10:14:52;11.48;;;7.18;;
71148;SDS011;59072;42.144;25.200;2022-10-16T10:17:21;12.90;;;7.70;;
71148;SDS011;59072;42.144;25.200;2022-10-16T10:19:54;11.63;;;8.35;;
71148;SDS011;59072;42.144;25.200;2022-10-16T10:36:25;9.80;;;6.22;;
71148;SDS011;59072;42.144;25.200;2022-10-16T10:38:59;10.20;;;7.25;;
71148;SDS011;59072;42.144;25.200;2022-10-16T10:57:29;13.77;;;8.27;;
71148;SDS011;59072;42.144;25.200;2022-10-16T11:05:49;10.82;;;6.72;;
71148;SDS011;59072;42.144;25.200;2022-10-16T11:08:53;9.10;;;6.20;;
71148;SDS011;59072;42.144;25.200;2022-10-16T11:11:25;11.20;;;6.03;;
71148;SDS011;59072;42.144;25.200;2022-10-16T11:14:00;11.15;;;6.03;;
71148;SDS011;59072;42.144;25.200;2022-10-16T11:16:35;10.55;;;6.70;;
71148;SDS011;59072;42.144;25.200;2022-10-16T11:21:56;9.80;;;6.28;;
71148;SDS011;59072;42.144;25.200;2022-10-16T11:24:46;9.38;;;6.03;;
71148;SDS011;59072;42.144;25.200;2022-10-16T11:27:40;10.07;;;6.03;;
71148;SDS011;59072;42.144;25.200;2022-10-16T11:30:23;8.48;;;5.35;;
71148;SDS011;59072;42.144;25.200;2022-10-16T11:38:10;11.20;;;5.90;;
71148;SDS011;59072;42.144;25.200;2022-10-16T11:40:41;11.07;;;6.10;;
71148;SDS011;59072;42.144;25.200;2022-10-16T11:43:13;11.98;;;6.65;;
71148;SDS011;59072;42.144;25.200;2022-10-16T11:45:46;8.57;;;6.00;;
71148;SDS011;59072;42.144;25.200;2022-10-16T11:48:24;9.27;;;5.75;;
71148;SDS011;59072;42.144;25.200;2022-10-16T11:50:57;10.57;;;5.95;;
71148;SDS011;59072;42.144;25.200;2022-10-16T11:56:18;9.48;;;5.43;;
71148;SDS011;59072;42.144;25.200;2022-10-16T12:04:04;9.02;;;5.40;;
71148;SDS011;59072;42.144;25.200;2022-10-16T12:06:57;8.07;;;5.50;;
71148;SDS011;59072;42.144;25.200;2022-10-16T12:09:29;11.40;;;6.20;;
71148;SDS011;59072;42.144;25.200;2022-10-16T12:11:57;9.88;;;5.75;;
71148;SDS011;59072;42.144;25.200;2022-10-16T12:17:02;12.60;;;6.13;;
71148;SDS011;59072;42.144;25.200;2022-10-16T12:19:31;12.57;;;5.72;;
71148;SDS011;59072;42.144;25.200;2022-10-16T12:21:58;9.95;;;5.53;;
71148;SDS011;59072;42.144;25.200;2022-10-16T12:27:01;9.77;;;5.75;;
71148;SDS011;59072;42.144;25.200;2022-10-16T12:29:39;9.05;;;5.20;;
71148;SDS011;59072;42.144;25.200;2022-10-16T12:34:53;10.43;;;5.40;;
71148;SDS011;59072;42.144;25.200;2022-10-16T12:39:53;9.60;;;4.95;;
71148;SDS011;59072;42.144;25.200;2022-10-16T12:44:52;9.88;;;5.50;;
71148;SDS011;59072;42.144;25.200;2022-10-16T12:49:55;8.07;;;4.68;;
71148;SDS011;59072;42.144;25.200;2022-10-16T13:17:06;9.50;;;5.13;;
71148;SDS011;59072;42.144;25.200;2022-10-16T13:20:04;12.77;;;5.97;;
71148;SDS011;59072;42.144;25.200;2022-10-16T13:28:21;10.90;;;5.30;;
71148;SDS011;59072;42.144;25.200;2022-10-16T13:30:53;13.15;;;5.45;;
71148;SDS011;59072;42.144;25.200;2022-10-16T13:33:40;10.20;;;5.88;;
71148;SDS011;59072;42.144;25.200;2022-10-16T13:36:18;9.27;;;5.53;;
71148;SDS011;59072;42.144;25.200;2022-10-16T13:39:10;10.03;;;5.70;;
71148;SDS011;59072;42.144;25.200;2022-10-16T13:41:41;11.18;;;5.45;;
71148;SDS011;59072;42.144;25.200;2022-10-16T13:44:28;7.80;;;5.28;;
71148;SDS011;59072;42.144;25.200;2022-10-16T13:49:23;9.13;;;4.82;;
71148;SDS011;59072;42.144;25.200;2022-10-16T13:51:56;8.95;;;5.07;;
71148;SDS011;59072;42.144;25.200;2022-10-16T13:54:23;8.50;;;4.93;;
71148;SDS011;59072;42.144;25.200;2022-10-16T13:56:50;10.88;;;5.22;;
71148;SDS011;59072;42.144;25.200;2022-10-16T14:02:15;8.82;;;4.63;;
71148;SDS011;59072;42.144;25.200;2022-10-16T14:04:47;7.93;;;4.80;;
71148;SDS011;59072;42.144;25.200;2022-10-16T14:07:14;10.27;;;4.90;;
71148;SDS011;59072;42.144;25.200;2022-10-16T14:09:50;7.78;;;4.80;;
71148;SDS011;59072;42.144;25.200;2022-10-16T14:12:16;12.57;;;5.37;;
71148;SDS011;59072;42.144;25.200;2022-10-16T14:14:43;9.88;;;4.70;;
71148;SDS011;59072;42.144;25.200;2022-10-16T14:17:14;12.20;;;5.30;;
71148;SDS011;59072;42.144;25.200;2022-10-16T14:19:40;8.20;;;4.60;;
71148;SDS011;59072;42.144;25.200;2022-10-16T14:22:20;8.45;;;4.97;;
71148;SDS011;59072;42.144;25.200;2022-10-16T14:24:51;9.20;;;4.68;;
71148;SDS011;59072;42.144;25.200;2022-10-16T14:27:25;9.32;;;5.07;;
71148;SDS011;59072;42.144;25.200;2022-10-16T14:32:33;12.02;;;5.88;;
71148;SDS011;59072;42.144;25.200;2022-10-16T14:34:59;11.40;;;4.97;;
71148;SDS011;59072;42.144;25.200;2022-10-16T14:37:27;9.90;;;5.30;;
71148;SDS011;59072;42.144;25.200;2022-10-16T14:39:54;13.27;;;6.60;;
71148;SDS011;59072;42.144;25.200;2022-10-16T14:42:21;13.95;;;7.47;;
71148;SDS011;59072;42.144;25.200;2022-10-16T14:44:51;16.20;;;6.88;;
71148;SDS011;59072;42.144;25.200;2022-10-16T14:47:19;11.73;;;5.68;;
71148;SDS011;59072;42.144;25.200;2022-10-16T14:49:49;13.00;;;5.85;;
71148;SDS011;59072;42.144;25.200;2022-10-16T14:52:15;12.93;;;6.75;;
71148;SDS011;59072;42.144;25.200;2022-10-16T14:54:41;18.35;;;5.45;;
71148;SDS011;59072;42.144;25.200;2022-10-16T14:57:15;30.35;;;6.50;;
71148;SDS011;59072;42.144;25.200;2022-10-16T14:59:42;13.52;;;6.22;;
71148;SDS011;59072;42.144;25.200;2022-10-16T15:02:23;14.95;;;6.30;;
71148;SDS011;59072;42.144;25.200;2022-10-16T15:04:53;18.95;;;5.97;;
71148;SDS011;59072;42.144;25.200;2022-10-16T15:07:18;13.88;;;6.35;;
71148;SDS011;59072;42.144;25.200;2022-10-16T15:09:44;13.73;;;6.38;;
71148;SDS011;59072;42.144;25.200;2022-10-16T15:12:09;17.90;;;5.47;;
71148;SDS011;59072;42.144;25.200;2022-10-16T15:14:35;13.27;;;6.25;;
71148;SDS011;59072;42.144;25.200;2022-10-16T15:17:00;15.85;;;7.05;;
71148;SDS011;59072;42.144;25.200;2022-10-16T15:19:26;18.15;;;9.07;;
71148;SDS011;59072;42.144;25.200;2022-10-16T15:21:52;33.28;;;14.63;;
71148;SDS011;59072;42.144;25.200;2022-10-16T15:24:17;29.58;;;12.20;;
71148;SDS011;59072;42.144;25.200;2022-10-16T15:26:43;17.02;;;8.00;;
71148;SDS011;59072;42.144;25.200;2022-10-16T15:29:10;19.88;;;8.05;;
71148;SDS011;59072;42.144;25.200;2022-10-16T15:31:37;30.25;;;8.05;;
71148;SDS011;59072;42.144;25.200;2022-10-16T15:34:02;10.55;;;6.18;;
71148;SDS011;59072;42.144;25.200;2022-10-16T15:36:30;10.40;;;6.55;;
71148;SDS011;59072;42.144;25.200;2022-10-16T15:38:59;13.73;;;6.82;;
71148;SDS011;59072;42.144;25.200;2022-10-16T15:41:25;13.27;;;6.25;;
71148;SDS011;59072;42.144;25.200;2022-10-16T15:43:50;12.82;;;6.35;;
71148;SDS011;59072;42.144;25.200;2022-10-16T15:46:20;15.55;;;6.85;;
71148;SDS011;59072;42.144;25.200;2022-10-16T15:48:47;13.40;;;6.80;;
71148;SDS011;59072;42.144;25.200;2022-10-16T15:51:14;14.50;;;6.38;;
71148;SDS011;59072;42.144;25.200;2022-10-16T15:53:39;10.80;;;6.03;;
71148;SDS011;59072;42.144;25.200;2022-10-16T15:56:05;16.92;;;8.30;;
71148;SDS011;59072;42.144;25.200;2022-10-16T15:58:32;20.98;;;7.78;;
71148;SDS011;59072;42.144;25.200;2022-10-16T16:00:58;20.13;;;9.32;;
71148;SDS011;59072;42.144;25.200;2022-10-16T16:03:28;19.77;;;9.55;;
71148;SDS011;59072;42.144;25.200;2022-10-16T16:05:54;20.60;;;8.60;;
71148;SDS011;59072;42.144;25.200;2022-10-16T16:08:20;19.48;;;8.45;;
71148;SDS011;59072;42.144;25.200;2022-10-16T16:10:56;20.80;;;8.23;;
71148;SDS011;59072;42.144;25.200;2022-10-16T16:13:29;17.60;;;8.73;;
71148;SDS011;59072;42.144;25.200;2022-10-16T16:15:54;26.77;;;11.10;;
71148;SDS011;59072;42.144;25.200;2022-10-16T16:18:20;16.83;;;9.05;;
71148;SDS011;59072;42.144;25.200;2022-10-16T16:20:45;14.95;;;8.77;;
71148;SDS011;59072;42.144;25.200;2022-10-16T16:23:11;16.17;;;8.38;;
71148;SDS011;59072;42.144;25.200;2022-10-16T16:25:36;15.05;;;7.82;;
71148;SDS011;59072;42.144;25.200;2022-10-16T16:28:02;14.07;;;7.57;;
71148;SDS011;59072;42.144;25.200;2022-10-16T16:30:27;14.40;;;7.60;;
71148;SDS011;59072;42.144;25.200;2022-10-16T16:32:52;20.38;;;8.40;;
71148;SDS011;59072;42.144;25.200;2022-10-16T16:35:18;15.77;;;9.38;;
71148;SDS011;59072;42.144;25.200;2022-10-16T16:37:43;20.83;;;10.35;;
71148;SDS011;59072;42.144;25.200;2022-10-16T16:40:09;15.93;;;9.45;;
71148;SDS011;59072;42.144;25.200;2022-10-16T16:42:34;32.03;;;15.45;;
71148;SDS011;59072;42.144;25.200;2022-10-16T16:45:00;23.17;;;12.93;;
71148;SDS011;59072;42.144;25.200;2022-10-16T16:47:25;23.15;;;14.90;;
71148;SDS011;59072;42.144;25.200;2022-10-16T16:49:50;33.13;;;21.23;;
71148;SDS011;59072;42.144;25.200;2022-10-16T16:52:16;41.80;;;19.45;;
71148;SDS011;59072;42.144;25.200;2022-10-16T16:54:42;36.55;;;21.02;;
71148;SDS011;59072;42.144;25.200;2022-10-16T16:57:09;43.07;;;21.13;;
71148;SDS011;59072;42.144;25.200;2022-10-16T16:59:35;34.00;;;18.85;;
71148;SDS011;59072;42.144;25.200;2022-10-16T17:02:00;30.38;;;16.10;;